TimeCST,TemperatureF,Dew PointF,Humidity,Sea Level PressureIn,VisibilityMPH,Wind Direction,Wind SpeedMPH,Gust SpeedMPH,PrecipitationIn,Events,Conditions,WindDirDegrees,DateUTC
12:54 AM,21.0,12.9,71,29.84,10.0,SE,13.8,-,N/A,,Partly Cloudy,140,2013-02-18 06:54:00
1:54 AM,21.9,15.1,75,29.79,10.0,SE,11.5,-,N/A,,Mostly Cloudy,140,2013-02-18 07:54:00
2:54 AM,23.0,16.0,74,29.75,10.0,SE,15.0,23.0,N/A,,Partly Cloudy,140,2013-02-18 08:54:00
3:54 AM,23.0,17.1,78,29.72,10.0,SE,11.5,-,N/A,,Clear,140,2013-02-18 09:54:00
4:54 AM,21.0,16.0,81,29.71,10.0,ESE,8.1,-,N/A,,Clear,120,2013-02-18 10:54:00
5:54 AM,21.0,16.0,81,29.68,10.0,ESE,6.9,-,N/A,,Clear,120,2013-02-18 11:54:00
6:54 AM,21.0,16.0,81,29.65,9.0,SE,8.1,-,N/A,,Clear,130,2013-02-18 12:54:00
7:54 AM,21.0,16.0,81,29.65,8.0,SE,6.9,-,N/A,,Clear,130,2013-02-18 13:54:00
8:54 AM,23.0,18.0,81,29.63,8.0,SE,6.9,-,N/A,,Clear,130,2013-02-18 14:54:00
9:54 AM,27.0,21.0,78,29.61,10.0,SSE,8.1,-,N/A,,Clear,160,2013-02-18 15:54:00
10:54 AM,30.0,23.0,75,29.59,10.0,SSE,5.8,-,N/A,,Clear,150,2013-02-18 16:54:00
11:54 AM,33.1,25.0,72,29.57,10.0,SSE,9.2,-,N/A,,Clear,160,2013-02-18 17:54:00
12:54 PM,35.1,26.1,70,29.53,10.0,South,8.1,-,N/A,,Clear,170,2013-02-18 18:54:00
1:54 PM,36.0,27.0,70,29.52,10.0,South,4.6,-,N/A,,Partly Cloudy,180,2013-02-18 19:54:00
2:11 PM,35.6,26.6,70,29.47,10.0,SW,6.9,-,N/A,,Mostly Cloudy,220,2013-02-18 20:11:00
2:54 PM,37.0,27.0,67,29.52,10.0,WNW,5.8,-,N/A,,Overcast,290,2013-02-18 20:54:00
3:54 PM,36.0,27.0,70,29.53,8.0,WNW,5.8,-,N/A,,Overcast,290,2013-02-18 21:54:00
4:07 PM,35.6,28.4,75,29.49,1.8,WNW,6.9,-,0.00,Snow,Light Snow,290,2013-02-18 22:07:00
4:25 PM,33.8,28.4,81,29.49,1.0,WNW,5.8,-,0.00,Snow,Light Snow,290,2013-02-18 22:25:00
4:44 PM,33.8,30.2,87,29.48,1.5,West,4.6,-,0.00,Snow,Light Snow,280,2013-02-18 22:44:00
4:54 PM,33.1,30.0,89,29.53,2.0,West,4.6,-,0.00,Snow,Light Snow,280,2013-02-18 22:54:00
5:10 PM,33.8,30.2,87,29.49,3.0,West,5.8,-,0.00,,Overcast,280,2013-02-18 23:10:00
5:36 PM,33.8,30.2,87,29.48,2.0,WNW,5.8,-,0.00,Snow,Light Snow,300,2013-02-18 23:36:00
5:54 PM,32.0,30.0,92,29.53,3.0,NW,8.1,-,0.00,Snow,Light Snow,310,2013-02-18 23:54:00
6:14 PM,32.0,30.2,93,29.49,3.0,WNW,6.9,-,0.00,Snow,Light Snow,290,2013-02-19 00:14:00
6:54 PM,30.9,27.0,85,29.55,8.0,WNW,15.0,-,0.00,,Overcast,300,2013-02-19 00:54:00
7:40 PM,30.2,26.6,86,29.49,7.0,NW,18.4,-,N/A,,Overcast,310,2013-02-19 01:40:00
7:54 PM,30.0,26.1,85,29.54,4.0,NW,20.7,27.6,0.00,Snow,Light Snow,310,2013-02-19 01:54:00
8:34 PM,28.4,26.6,93,29.47,3.0,WNW,18.4,-,0.00,Snow,Light Snow,300,2013-02-19 02:34:00
8:54 PM,27.0,24.1,89,29.54,5.0,WNW,19.6,28.8,0.00,,Overcast,300,2013-02-19 02:54:00
9:54 PM,24.1,21.0,88,29.54,6.0,West,13.8,26.5,N/A,,Overcast,280,2013-02-19 03:54:00
10:54 PM,21.0,18.0,88,29.54,4.0,WNW,18.4,31.1,N/A,,Overcast,290,2013-02-19 04:54:00
11:54 PM,19.9,17.1,89,29.55,5.0,WNW,18.4,25.3,N/A,,Overcast,290,2013-02-19 05:54:00